createdAt,value
2023-10-20T00:01:10.653Z,99165.25
2023-10-20T00:03:39.115Z,99157.38
2023-10-20T00:06:06.497Z,99153.00
2023-10-20T00:08:33.834Z,99167.84
2023-10-20T00:11:05.377Z,99186.19
2023-10-20T00:13:33.530Z,99186.16
2023-10-20T00:16:02.317Z,99188.75
2023-10-20T00:18:29.687Z,99192.22
2023-10-20T00:20:56.868Z,99183.50
2023-10-20T00:23:24.099Z,99185.25
2023-10-20T00:25:51.436Z,99194.84
2023-10-20T00:28:18.700Z,99201.78
2023-10-20T00:30:46.656Z,99193.06
2023-10-20T00:33:14.037Z,99192.19
2023-10-20T00:35:41.255Z,99187.81
2023-10-20T00:38:08.689Z,99168.63
2023-10-20T00:40:36.002Z,99167.72
2023-10-20T00:43:03.570Z,99145.94
2023-10-20T00:45:31.155Z,99145.06
2023-10-20T00:47:58.924Z,99145.97
2023-10-20T00:50:26.290Z,99136.38
2023-10-20T00:52:53.988Z,99135.50
2023-10-20T00:55:23.029Z,99128.50
2023-10-20T00:57:51.250Z,99120.63
2023-10-20T01:00:18.564Z,99125.81
2023-10-20T01:02:45.946Z,99124.94
2023-10-20T01:05:20.662Z,99117.09
2023-10-20T01:07:47.917Z,99110.09
2023-10-20T01:10:15.649Z,99110.94
2023-10-20T01:12:43.350Z,99111.78
2023-10-20T01:15:13.576Z,99121.41
2023-10-20T01:17:42.311Z,99113.56
2023-10-20T01:20:10.710Z,99109.22
2023-10-20T01:22:38.102Z,99101.38
2023-10-20T01:25:06.036Z,99097.06
2023-10-20T01:27:33.344Z,99102.28
2023-10-20T01:30:00.703Z,99090.97
2023-10-20T01:32:28.056Z,99070.88
2023-10-20T01:34:55.587Z,99070.03
2023-10-20T01:37:22.898Z,99063.94
2023-10-20T01:39:50.175Z,99051.72
2023-10-20T01:42:17.344Z,99044.78
2023-10-20T01:44:44.777Z,99041.31
2023-10-20T01:47:12.671Z,99042.16
2023-10-20T01:49:40.096Z,99044.78
2023-10-20T01:52:08.964Z,99050.03
2023-10-20T01:54:36.281Z,99048.31
2023-10-20T01:57:03.670Z,99043.09
2023-10-20T01:59:31.378Z,99049.19
2023-10-20T02:01:59.146Z,99060.56
2023-10-20T02:04:26.931Z,99062.34
2023-10-20T02:06:54.312Z,99064.97
2023-10-20T02:09:21.567Z,99083.28
2023-10-20T02:11:48.845Z,99065.81
2023-10-20T02:14:16.152Z,99072.81
2023-10-20T02:16:43.611Z,99075.44
2023-10-20T02:21:40.248Z,99077.22
2023-10-20T02:24:09.002Z,99070.25
2023-10-20T02:26:37.052Z,99079.00
2023-10-20T02:29:04.410Z,99079.84
2023-10-20T02:31:32.912Z,99076.34
2023-10-20T02:34:00.343Z,99067.59
2023-10-20T02:36:27.606Z,99061.50
2023-10-20T02:38:56.334Z,99044.94
2023-10-20T02:41:23.613Z,99045.81
2023-10-20T02:43:50.853Z,99058.88
2023-10-20T02:46:18.209Z,99076.38
2023-10-20T02:48:47.814Z,99048.50
2023-10-20T02:51:16.845Z,99042.34
2023-10-20T02:53:44.646Z,99051.09
2023-10-20T02:56:19.336Z,99039.75
2023-10-20T02:58:47.664Z,99044.97
2023-10-20T03:01:18.668Z,99042.34
2023-10-20T03:03:47.297Z,99023.19
2023-10-20T03:06:14.691Z,99037.19
2023-10-20T03:08:42.021Z,99005.72
2023-10-20T03:11:10.634Z,98993.53
2023-10-20T03:13:38.886Z,98994.38
2023-10-20T03:16:07.431Z,99001.34
2023-10-20T03:18:35.229Z,98969.94
2023-10-20T03:21:05.635Z,98970.81
2023-10-20T03:23:34.397Z,98991.75
2023-10-20T03:26:01.822Z,98977.75
2023-10-20T03:28:29.706Z,98984.72
2023-10-20T03:30:57.221Z,98979.47
2023-10-20T03:33:24.624Z,98958.53
2023-10-20T03:36:04.560Z,98951.53
2023-10-20T03:38:32.695Z,98946.28
2023-10-20T03:41:13.098Z,98941.91
2023-10-20T03:43:40.450Z,98938.44
2023-10-20T03:46:07.857Z,98930.56
2023-10-20T03:48:36.808Z,98920.97
2023-10-20T03:51:07.181Z,98920.09
2023-10-20T03:53:45.550Z,98920.09
2023-10-20T03:56:13.025Z,98905.22
2023-10-20T03:58:43.560Z,98892.16
2023-10-20T04:01:11.065Z,98900.94
2023-10-20T04:03:39.825Z,98882.63
2023-10-20T04:06:10.357Z,98883.47
2023-10-20T04:08:37.747Z,98882.59
2023-10-20T04:11:05.104Z,98885.22
2023-10-20T04:13:33.621Z,98873.84
2023-10-20T04:16:13.687Z,98881.69
2023-10-20T04:18:42.620Z,98863.38
2023-10-20T04:21:13.056Z,98864.28
2023-10-20T04:23:41.371Z,98869.50
2023-10-20T04:26:20.132Z,98874.75
2023-10-20T04:28:49.437Z,98890.44
2023-10-20T04:31:38.708Z,98892.16
2023-10-20T04:34:24.953Z,98865.97
2023-10-20T04:37:10.921Z,98899.97
2023-10-20T04:39:57.214Z,98863.28
2023-10-20T04:42:36.712Z,98847.53
2023-10-20T04:45:23.165Z,98849.22
2023-10-20T04:48:09.571Z,98868.41
2023-10-20T04:50:55.607Z,98854.44
2023-10-20T04:53:41.202Z,98878.00
2023-10-20T04:56:17.753Z,98885.84
2023-10-20T04:58:50.855Z,98880.59
2023-10-20T05:01:32.176Z,98856.13
2023-10-20T05:03:59.731Z,98868.38
2023-10-20T05:06:27.882Z,98855.25
2023-10-20T05:08:55.568Z,98837.75
2023-10-20T05:11:22.955Z,98829.88
2023-10-20T05:13:50.924Z,98818.56
2023-10-20T05:16:18.269Z,98828.16
2023-10-20T05:18:46.249Z,98805.50
2023-10-20T05:21:13.668Z,98834.31
2023-10-20T05:23:42.471Z,98826.50
2023-10-20T05:26:10.845Z,98838.75
2023-10-20T05:28:38.332Z,98864.09
2023-10-20T05:31:05.606Z,98836.19
2023-10-20T05:33:33.079Z,98836.19
2023-10-20T05:36:02.486Z,98847.53
2023-10-20T05:38:29.930Z,98837.06
2023-10-20T05:40:59.485Z,98837.06
2023-10-20T05:43:27.811Z,98828.38
2023-10-20T05:45:55.649Z,98830.13
2023-10-20T05:48:23.130Z,98836.25
2023-10-20T05:50:57.217Z,98851.09
2023-10-20T05:53:27.800Z,98827.53
2023-10-20T05:55:55.351Z,98834.53
2023-10-20T05:58:23.637Z,98816.19
2023-10-20T06:01:02.379Z,98818.81
2023-10-20T06:03:31.102Z,98809.25
2023-10-20T06:06:00.260Z,98801.44
2023-10-20T06:08:30.493Z,98797.94
2023-10-20T06:11:05.678Z,98785.75
2023-10-20T06:13:36.021Z,98799.72
2023-10-20T06:16:12.334Z,98793.66
2023-10-20T06:18:42.136Z,98791.97
2023-10-20T06:21:21.027Z,98805.97
2023-10-20T06:23:48.432Z,98777.19
2023-10-20T06:26:16.822Z,98764.09
2023-10-20T06:28:46.301Z,98744.03
2023-10-20T06:31:36.174Z,98733.63
2023-10-20T06:34:19.106Z,98758.06
2023-10-20T06:36:49.581Z,98766.84
2023-10-20T06:39:20.234Z,98790.41
2023-10-20T06:41:48.484Z,98770.31
2023-10-20T06:44:20.996Z,98784.31
2023-10-20T06:46:48.518Z,98783.41
2023-10-20T06:49:20.105Z,98798.28
2023-10-20T06:51:49.245Z,98822.72
2023-10-20T06:54:17.825Z,98823.63
2023-10-20T06:56:48.820Z,98810.53
2023-10-20T06:59:16.408Z,98791.34
2023-10-20T07:01:45.651Z,98798.34
2023-10-20T07:04:14.559Z,98793.13
2023-10-20T07:06:41.789Z,98782.66
2023-10-20T07:09:13.125Z,98800.97
2023-10-20T07:11:41.255Z,98789.59
2023-10-20T07:14:08.600Z,98788.75
2023-10-20T07:16:36.163Z,98784.44
2023-10-20T07:19:04.909Z,98798.38
2023-10-20T07:21:32.382Z,98798.38
2023-10-20T07:23:59.781Z,98796.66
2023-10-20T07:26:27.216Z,98794.06
2023-10-20T07:28:54.644Z,98795.81
2023-10-20T07:31:24.805Z,98777.50
2023-10-20T07:33:52.123Z,98770.53
2023-10-20T07:36:20.216Z,98771.38
2023-10-20T07:38:47.500Z,98782.75
2023-10-20T07:41:15.670Z,98778.41
2023-10-20T07:43:43.134Z,98777.53
2023-10-20T07:46:19.534Z,98765.31
2023-10-20T07:48:46.971Z,98763.56
2023-10-20T07:51:14.586Z,98776.69
2023-10-20T07:53:42.175Z,98773.16
2023-10-20T07:56:09.459Z,98758.31
2023-10-20T07:58:36.878Z,98768.78
2023-10-20T08:01:04.476Z,98749.63
2023-10-20T08:03:31.950Z,98741.84
2023-10-20T08:06:04.912Z,98727.84
2023-10-20T08:08:34.004Z,98745.31
2023-10-20T08:11:05.096Z,98730.44
2023-10-20T08:13:33.263Z,98735.63
2023-10-20T08:16:04.821Z,98743.50
2023-10-20T08:18:35.688Z,98733.88
2023-10-20T08:21:08.572Z,98751.38
2023-10-20T08:23:39.885Z,98744.41
2023-10-20T08:26:07.779Z,98742.69
2023-10-20T08:28:34.981Z,98734.00
2023-10-20T08:31:09.860Z,98728.78
2023-10-20T08:33:37.578Z,98735.72
2023-10-20T08:36:16.486Z,98731.41
2023-10-20T08:38:46.349Z,98744.56
2023-10-20T08:41:15.553Z,98715.84
2023-10-20T08:43:44.276Z,98723.78
2023-10-20T08:46:14.733Z,98732.50
2023-10-20T08:48:43.017Z,98718.56
2023-10-20T08:51:13.662Z,98730.78
2023-10-20T08:53:42.951Z,98721.22
2023-10-20T08:56:13.074Z,98713.41
2023-10-20T08:58:40.753Z,98717.81
2023-10-20T09:01:08.265Z,98719.56
2023-10-20T09:03:46.858Z,98705.59
2023-10-20T09:06:18.291Z,98703.91
2023-10-20T09:08:51.398Z,98725.72
2023-10-20T09:11:20.987Z,98701.38
2023-10-20T09:13:49.064Z,98704.03
2023-10-20T09:16:17.563Z,98701.47
2023-10-20T09:18:46.746Z,98701.47
2023-10-20T09:21:15.816Z,98689.28
2023-10-20T09:23:58.278Z,98704.94
2023-10-20T09:26:28.131Z,98691.84
2023-10-20T09:28:57.273Z,98702.34
2023-10-20T09:31:28.310Z,98693.66
2023-10-20T09:33:56.119Z,98694.50
2023-10-20T09:36:26.945Z,98684.94
2023-10-20T09:38:57.005Z,98677.94
2023-10-20T09:41:26.464Z,98677.94
2023-10-20T09:44:07.896Z,98688.47
2023-10-20T09:46:54.612Z,98674.50
2023-10-20T09:49:27.740Z,98673.66
2023-10-20T09:51:56.933Z,98690.22
2023-10-20T09:54:28.692Z,98674.53
2023-10-20T09:57:00.747Z,98685.84
2023-10-20T09:59:31.339Z,98689.34
2023-10-20T10:02:03.353Z,98681.50
2023-10-20T10:04:40.370Z,98691.91
2023-10-20T10:07:10.013Z,98691.84
2023-10-20T10:09:39.227Z,98684.88
2023-10-20T10:12:19.534Z,98678.78
2023-10-20T10:15:07.214Z,98681.41
2023-10-20T10:17:48.563Z,98662.25
2023-10-20T10:20:21.274Z,98663.97
2023-10-20T10:23:00.448Z,98668.25
2023-10-20T10:25:35.976Z,98661.31
2023-10-20T10:28:10.849Z,98686.56
2023-10-20T10:30:39.108Z,98683.09
2023-10-20T10:33:11.800Z,98663.91
2023-10-20T10:35:40.882Z,98669.16
2023-10-20T10:38:22.552Z,98662.09
2023-10-20T10:40:52.525Z,98662.06
2023-10-20T10:43:22.440Z,98662.91
2023-10-20T10:45:56.098Z,98653.28
2023-10-20T10:48:29.240Z,98632.38
2023-10-20T10:50:57.397Z,98630.69
2023-10-20T10:53:27.382Z,98642.91
2023-10-20T10:55:55.921Z,98629.00
2023-10-20T10:58:24.696Z,98625.47
2023-10-20T11:00:52.429Z,98613.25
2023-10-20T11:03:22.436Z,98600.16
2023-10-20T11:05:52.482Z,98600.28
2023-10-20T11:08:20.503Z,98598.56
2023-10-20T11:10:48.341Z,98615.09
2023-10-20T11:13:20.968Z,98630.81
2023-10-20T11:15:50.762Z,98593.38
2023-10-20T11:18:18.483Z,98607.34
2023-10-20T11:20:50.798Z,98582.94
2023-10-20T11:23:29.211Z,98580.28
2023-10-20T11:25:57.792Z,98573.31
2023-10-20T11:28:28.944Z,98590.75
2023-10-20T11:30:56.333Z,98582.06
2023-10-20T11:33:24.004Z,98557.69
2023-10-20T11:35:53.554Z,98563.78
2023-10-20T11:38:20.934Z,98563.78
2023-10-20T11:40:50.804Z,98566.41
2023-10-20T11:43:18.402Z,98550.72
2023-10-20T11:45:46.454Z,98537.66
2023-10-20T11:48:13.973Z,98542.03
2023-10-20T11:50:41.439Z,98535.94
2023-10-20T11:53:08.702Z,98537.63
2023-10-20T11:55:36.211Z,98534.09
2023-10-20T11:58:05.267Z,98525.41
2023-10-20T12:00:33.426Z,98511.53
2023-10-20T12:03:01.109Z,98503.75
2023-10-20T12:05:28.544Z,98517.72
2023-10-20T12:07:56.012Z,98488.09
2023-10-20T12:10:25.285Z,98482.91
2023-10-20T12:12:52.918Z,98469.84
2023-10-20T12:15:20.494Z,98469.88
2023-10-20T12:20:16.572Z,98472.38
2023-10-20T12:22:43.887Z,98457.53
2023-10-20T12:25:11.230Z,98458.38
2023-10-20T12:27:39.229Z,98444.44
2023-10-20T12:30:07.254Z,98450.53
2023-10-20T12:32:34.924Z,98440.94
2023-10-20T12:35:02.385Z,98455.75
2023-10-20T12:37:29.624Z,98447.03
2023-10-20T12:40:00.350Z,98418.31
2023-10-20T12:42:28.506Z,98413.09
2023-10-20T12:44:55.750Z,98399.19
2023-10-20T12:47:24.237Z,98393.97
2023-10-20T12:49:55.745Z,98376.53
2023-10-20T12:52:23.074Z,98395.69
2023-10-20T12:54:51.854Z,98373.91
2023-10-20T12:57:20.451Z,98360.00
2023-10-20T12:59:48.006Z,98351.31
2023-10-20T13:02:15.459Z,98355.69
2023-10-20T13:04:43.205Z,98346.94
2023-10-20T13:07:13.436Z,98347.84
2023-10-20T13:09:42.238Z,98351.25
2023-10-20T13:12:11.612Z,98343.41
2023-10-20T13:14:39.064Z,98336.41
2023-10-20T13:17:06.382Z,98338.97
2023-10-20T13:19:34.238Z,98308.50
2023-10-20T13:22:01.883Z,98324.19
2023-10-20T13:24:29.135Z,98345.13
2023-10-20T13:26:56.391Z,98312.84
2023-10-20T13:29:23.664Z,98301.53
2023-10-20T13:31:51.831Z,98301.53
2023-10-20T13:34:19.231Z,98308.50
2023-10-20T13:36:46.495Z,98298.06
2023-10-20T13:41:44.987Z,98291.09
2023-10-20T13:44:13.789Z,98292.81
2023-10-20T13:46:41.169Z,98291.06
2023-10-20T13:49:09.541Z,98288.44
2023-10-20T13:51:43.428Z,98293.66
2023-10-20T13:54:10.746Z,98283.22
2023-10-20T13:56:38.187Z,98274.53
2023-10-20T13:59:06.928Z,98300.72
2023-10-20T14:01:35.037Z,98286.88
2023-10-20T14:04:02.812Z,98288.63
2023-10-20T14:06:30.333Z,98279.03
2023-10-20T14:08:57.697Z,98282.50
2023-10-20T14:11:25.441Z,98298.19
2023-10-20T14:13:52.798Z,98285.16
2023-10-20T14:16:21.800Z,98286.84
2023-10-20T14:18:49.298Z,98293.78
2023-10-20T14:21:16.783Z,98282.50
2023-10-20T14:23:44.244Z,98291.16
2023-10-20T14:26:13.830Z,98292.03
2023-10-20T14:28:41.133Z,98285.97
2023-10-20T14:31:08.759Z,98292.03
2023-10-20T14:33:36.441Z,98302.56
2023-10-20T14:36:05.090Z,98306.91
2023-10-20T14:38:33.060Z,98322.59
2023-10-20T14:41:03.389Z,98316.50
2023-10-20T14:43:33.515Z,98348.72
2023-10-20T14:46:01.236Z,98304.28
2023-10-20T14:48:29.668Z,98303.50
2023-10-20T14:50:58.146Z,98281.72
2023-10-20T14:53:26.510Z,98276.47
2023-10-20T14:55:56.355Z,98292.19
2023-10-20T14:58:23.642Z,98304.38
2023-10-20T15:00:51.847Z,98302.63
2023-10-20T15:03:23.968Z,98289.59
2023-10-20T15:05:51.919Z,98267.84
2023-10-20T15:08:21.948Z,98267.00
2023-10-20T15:10:49.814Z,98261.81
2023-10-20T15:13:17.370Z,98249.63
2023-10-20T15:15:44.608Z,98257.44
2023-10-20T15:18:11.926Z,98257.44
2023-10-20T15:20:41.617Z,98252.25
2023-10-20T15:23:17.355Z,98235.66
2023-10-20T15:25:46.442Z,98222.56
2023-10-20T15:28:14.143Z,98221.66
2023-10-20T15:30:41.578Z,98229.47
2023-10-20T15:33:09.198Z,98223.31
2023-10-20T15:35:40.221Z,98207.69
2023-10-20T15:38:11.412Z,98208.56
2023-10-20T15:40:39.761Z,98213.78
2023-10-20T15:43:07.634Z,98202.47
2023-10-20T15:45:34.996Z,98198.13
2023-10-20T15:48:04.413Z,98190.28
2023-10-20T15:50:32.515Z,98204.19
2023-10-20T15:52:59.904Z,98209.38
2023-10-20T15:55:27.285Z,98213.78
2023-10-20T15:57:55.397Z,98226.88
2023-10-20T16:00:22.756Z,98215.56
2023-10-20T16:02:50.145Z,98217.34
2023-10-20T16:05:17.708Z,98209.50
2023-10-20T16:07:44.987Z,98218.22
2023-10-20T16:10:12.215Z,98216.50
2023-10-20T16:12:39.485Z,98220.81
2023-10-20T16:15:07.866Z,98201.66
2023-10-20T16:17:35.546Z,98215.63
2023-10-20T16:20:04.372Z,98206.94
2023-10-20T16:22:32.433Z,98204.34
2023-10-20T16:25:02.833Z,98220.00
2023-10-20T16:27:30.136Z,98216.53
2023-10-20T16:29:59.224Z,98206.94
2023-10-20T16:32:26.555Z,98216.53
2023-10-20T16:34:53.869Z,98231.38
2023-10-20T16:37:21.147Z,98215.72
2023-10-20T16:39:48.431Z,98208.72
2023-10-20T16:42:15.698Z,98220.97
2023-10-20T16:44:43.043Z,98217.50
2023-10-20T16:47:10.441Z,98234.94
2023-10-20T16:49:38.037Z,98212.31
2023-10-20T16:52:06.194Z,98244.53
2023-10-20T16:54:33.423Z,98217.53
2023-10-20T16:57:00.960Z,98225.38
2023-10-20T16:59:28.674Z,98243.69
2023-10-20T17:01:55.908Z,98254.13
2023-10-20T17:04:23.553Z,98259.34
2023-10-20T17:06:51.038Z,98250.66
2023-10-20T17:09:18.532Z,98261.13
2023-10-20T17:11:45.904Z,98273.31
2023-10-20T17:14:13.780Z,98282.00
2023-10-20T17:16:44.301Z,98285.47
2023-10-20T17:19:11.550Z,98275.00
2023-10-20T17:21:38.852Z,98274.06
2023-10-20T17:24:06.614Z,98274.06
2023-10-20T17:26:34.019Z,98280.19
2023-10-20T17:29:01.361Z,98282.81
2023-10-20T17:31:28.831Z,98275.84
2023-10-20T17:33:57.867Z,98288.94
2023-10-20T17:36:25.165Z,98299.41
2023-10-20T17:38:52.727Z,98281.16
2023-10-20T17:41:20.052Z,98283.72
2023-10-20T17:43:47.277Z,98275.03
2023-10-20T17:46:20.500Z,98276.75
2023-10-20T17:48:48.338Z,98277.63
2023-10-20T17:51:15.755Z,98276.75
2023-10-20T17:53:43.143Z,98288.06
2023-10-20T17:56:10.410Z,98268.91
2023-10-20T17:58:39.055Z,98276.75
2023-10-20T18:01:08.455Z,98269.78
2023-10-20T18:03:37.278Z,98271.53
2023-10-20T18:06:27.409Z,98259.34
2023-10-20T18:08:55.500Z,98270.66
2023-10-20T18:11:23.906Z,98275.94
2023-10-20T18:13:56.661Z,98271.59
2023-10-20T18:16:24.308Z,98272.50
2023-10-20T18:18:52.369Z,98278.56
2023-10-20T18:21:21.100Z,98279.50
2023-10-20T18:23:49.157Z,98292.59
2023-10-20T18:26:17.656Z,98271.69
2023-10-20T18:28:45.108Z,98285.59
2023-10-20T18:31:14.807Z,98278.59
2023-10-20T18:33:42.734Z,98296.00
2023-10-20T18:36:11.250Z,98295.13
2023-10-20T18:38:38.813Z,98302.97
2023-10-20T18:41:14.301Z,98291.69
2023-10-20T18:43:41.664Z,98283.84
2023-10-20T18:46:09.048Z,98291.69
2023-10-20T18:48:36.723Z,98292.59
2023-10-20T18:51:09.072Z,98290.81
2023-10-20T18:53:36.584Z,98287.34
2023-10-20T18:56:05.255Z,98287.28
2023-10-20T18:58:33.871Z,98296.03
2023-10-20T19:01:01.284Z,98293.41
2023-10-20T19:03:32.669Z,98287.34
2023-10-20T19:06:03.849Z,98300.41
2023-10-20T19:08:31.382Z,98281.22
2023-10-20T19:11:05.794Z,98300.41
2023-10-20T19:13:35.025Z,98300.41
2023-10-20T19:16:02.676Z,98307.34
2023-10-20T19:18:30.070Z,98304.69
2023-10-20T19:20:58.837Z,98296.84
2023-10-20T19:23:26.845Z,98285.56
2023-10-20T19:26:01.253Z,98292.56
2023-10-20T19:28:28.800Z,98290.81
2023-10-20T19:31:01.597Z,98302.13
2023-10-20T19:33:31.874Z,98316.94
2023-10-20T19:36:03.355Z,98303.88
2023-10-20T19:38:30.745Z,98301.28
2023-10-20T19:40:58.918Z,98314.28
2023-10-20T19:43:27.472Z,98304.69
2023-10-20T19:45:54.912Z,98308.16
2023-10-20T19:48:22.259Z,98314.25
2023-10-20T19:50:49.692Z,98308.16
2023-10-20T19:53:17.134Z,98305.53
2023-10-20T19:55:46.881Z,98308.16
2023-10-20T19:58:14.475Z,98318.59
2023-10-20T20:00:41.998Z,98329.91
2023-10-20T20:03:09.713Z,98326.44
2023-10-20T20:05:37.211Z,98323.81
2023-10-20T20:08:04.694Z,98327.25
2023-10-20T20:10:32.324Z,98321.13
2023-10-20T20:12:59.659Z,98322.88
2023-10-20T20:15:27.205Z,98317.63
2023-10-20T20:17:56.611Z,98316.78
2023-10-20T20:20:23.910Z,98322.00
2023-10-20T20:22:51.239Z,98322.84
2023-10-20T20:25:18.463Z,98322.81
2023-10-20T20:27:45.746Z,98328.94
2023-10-20T20:30:13.241Z,98325.44
2023-10-20T20:32:40.620Z,98323.69
2023-10-20T20:35:09.972Z,98330.66
2023-10-20T20:37:37.837Z,98320.19
2023-10-20T20:40:08.685Z,98330.59
2023-10-20T20:42:36.559Z,98322.72
2023-10-20T20:45:04.545Z,98328.78
2023-10-20T20:47:32.828Z,98330.47
2023-10-20T20:50:00.768Z,98332.19
2023-10-20T20:52:28.094Z,98324.34
2023-10-20T20:54:57.864Z,98334.75
2023-10-20T20:57:26.518Z,98335.63
2023-10-20T20:59:53.937Z,98331.22
2023-10-20T21:02:21.227Z,98341.66
2023-10-20T21:04:48.638Z,98335.56
2023-10-20T21:07:15.954Z,98337.25
2023-10-20T21:09:44.174Z,98341.63
2023-10-20T21:12:11.686Z,98342.50
2023-10-20T21:14:39.111Z,98338.97
2023-10-20T21:17:06.600Z,98332.88
2023-10-20T21:19:35.674Z,98338.97
2023-10-20T21:22:04.122Z,98348.47
2023-10-20T21:24:31.685Z,98338.84
2023-10-20T21:26:59.142Z,98339.72
2023-10-20T21:29:26.992Z,98351.00
2023-10-20T21:31:54.713Z,98338.75
2023-10-20T21:34:23.911Z,98341.38
2023-10-20T21:36:51.190Z,98344.81
2023-10-20T21:39:20.195Z,98343.88
2023-10-20T21:41:47.493Z,98355.19
2023-10-20T21:44:14.823Z,98339.47
2023-10-20T21:46:42.398Z,98349.00
2023-10-20T21:49:09.925Z,98353.31
2023-10-20T21:51:37.323Z,98353.31
2023-10-20T21:54:08.417Z,98353.31
2023-10-20T21:56:36.260Z,98343.66
2023-10-20T21:59:03.607Z,98347.09
2023-10-20T22:01:34.041Z,98351.38
2023-10-20T22:04:01.408Z,98354.81
2023-10-20T22:06:28.894Z,98355.63
2023-10-20T22:08:56.202Z,98356.47
2023-10-20T22:11:23.650Z,98360.75
2023-10-20T22:13:51.038Z,98363.28
2023-10-20T22:16:18.507Z,98362.31
2023-10-20T22:18:49.842Z,98372.69
2023-10-20T22:21:17.425Z,98375.22
2023-10-20T22:23:44.792Z,98383.00
2023-10-20T22:26:12.456Z,98368.09
2023-10-20T22:28:39.852Z,98375.88
2023-10-20T22:31:07.384Z,98385.34
2023-10-20T22:33:34.860Z,98381.78
2023-10-20T22:36:03.964Z,98392.22
2023-10-20T22:38:31.629Z,98390.41
2023-10-20T22:40:59.049Z,98398.16
2023-10-20T22:43:27.073Z,98393.72
2023-10-20T22:45:54.469Z,98395.41
2023-10-20T22:48:21.838Z,98403.22
2023-10-20T22:50:49.412Z,98408.38
2023-10-20T22:53:16.821Z,98414.44
2023-10-20T22:55:44.303Z,98410.88
2023-10-20T22:58:11.752Z,98412.53
2023-10-20T23:00:39.843Z,98418.56
2023-10-20T23:03:07.265Z,98417.63
2023-10-20T23:05:34.705Z,98420.13
2023-10-20T23:08:07.379Z,98427.03
2023-10-20T23:10:36.857Z,98436.56
2023-10-20T23:13:05.720Z,98433.88
2023-10-20T23:15:40.786Z,98439.00
2023-10-20T23:18:08.486Z,98432.75
2023-10-20T23:20:37.054Z,98444.00
2023-10-20T23:23:05.288Z,98448.28
2023-10-20T23:25:34.543Z,98443.84
2023-10-20T23:28:03.904Z,98452.53
2023-10-20T23:30:31.386Z,98450.66
2023-10-20T23:32:58.806Z,98438.34
2023-10-20T23:35:26.111Z,98436.50
2023-10-20T23:37:53.410Z,98446.84
2023-10-20T23:40:20.785Z,98445.00
2023-10-20T23:42:48.052Z,98446.66
2023-10-20T23:45:15.620Z,98450.94
2023-10-20T23:47:42.953Z,98446.59
2023-10-20T23:50:10.538Z,98450.91
2023-10-20T23:52:37.886Z,98451.78
2023-10-20T23:55:05.649Z,98457.91
2023-10-20T23:57:33.009Z,98457.84
